createdAt,value
2022-12-14T00:01:56.477Z,12.53
2022-12-14T00:04:24.400Z,14.53
2022-12-14T00:06:52.499Z,11.70
2022-12-14T00:09:20.352Z,12.43
2022-12-14T00:11:50.022Z,12.43
2022-12-14T00:14:18.038Z,12.30
2022-12-14T00:16:47.281Z,11.70
2022-12-14T00:19:15.554Z,12.87
2022-12-14T00:21:43.415Z,15.00
2022-12-14T00:24:12.715Z,13.33
2022-12-14T00:26:40.761Z,13.10
2022-12-14T00:29:08.621Z,12.43
2022-12-14T00:31:36.640Z,12.60
2022-12-14T00:34:05.871Z,13.73
2022-12-14T00:36:33.736Z,13.67
2022-12-14T00:39:01.587Z,12.93
2022-12-14T00:41:29.471Z,13.37
2022-12-14T00:43:57.261Z,12.37
2022-12-14T00:46:25.217Z,11.63
2022-12-14T00:48:53.257Z,12.87
2022-12-14T00:51:22.642Z,13.63
2022-12-14T00:53:50.423Z,16.27
2022-12-14T00:56:18.289Z,14.60
2022-12-14T00:58:51.442Z,15.13
2022-12-14T01:01:19.340Z,15.20
2022-12-14T01:03:47.304Z,13.37
2022-12-14T01:06:16.272Z,24.17
2022-12-14T01:08:45.475Z,12.47
2022-12-14T01:11:14.049Z,15.00
2022-12-14T01:13:42.673Z,15.77
2022-12-14T01:16:13.328Z,16.57
2022-12-14T01:18:43.829Z,13.33
2022-12-14T01:21:16.985Z,12.87
2022-12-14T01:23:47.334Z,13.63
2022-12-14T01:26:16.228Z,12.70
2022-12-14T01:28:44.380Z,14.03
2022-12-14T01:31:14.808Z,12.77
2022-12-14T01:33:42.948Z,13.07
2022-12-14T01:36:12.832Z,13.60
2022-12-14T01:38:40.735Z,13.80
2022-12-14T01:41:18.842Z,13.90
2022-12-14T01:43:48.814Z,13.70
2022-12-14T01:46:22.421Z,13.93
2022-12-14T01:48:52.604Z,17.70
2022-12-14T01:51:20.938Z,18.73
2022-12-14T01:53:49.097Z,13.83
2022-12-14T01:56:19.076Z,14.57
2022-12-14T01:58:46.899Z,13.93
2022-12-14T02:01:15.947Z,14.50
2022-12-14T02:03:48.041Z,14.07
2022-12-14T02:06:18.882Z,13.33
2022-12-14T02:08:49.992Z,18.20
2022-12-14T02:11:30.424Z,30.73
2022-12-14T02:13:58.325Z,18.03
2022-12-14T02:16:26.190Z,24.10
2022-12-14T02:18:54.609Z,18.70
2022-12-14T02:21:37.679Z,21.10
2022-12-14T02:24:28.469Z,15.90
2022-12-14T02:27:24.618Z,14.30
2022-12-14T02:30:03.425Z,15.33
2022-12-14T02:33:12.580Z,14.50
2022-12-14T02:35:47.441Z,14.00
2022-12-14T02:38:26.456Z,14.63
2022-12-14T02:41:06.539Z,13.87
2022-12-14T02:43:42.156Z,14.23
2022-12-14T02:46:22.694Z,15.30
2022-12-14T02:48:58.758Z,15.37
2022-12-14T02:51:36.704Z,14.00
2022-12-14T02:54:12.016Z,14.23
2022-12-14T02:56:46.139Z,15.33
2022-12-14T02:59:17.127Z,14.37
2022-12-14T03:01:49.156Z,15.00
2022-12-14T03:04:18.162Z,14.17
2022-12-14T03:06:53.977Z,15.33
2022-12-14T03:09:21.858Z,14.50
2022-12-14T03:11:55.363Z,15.63
2022-12-14T03:14:28.398Z,15.83
2022-12-14T03:17:05.130Z,16.87
2022-12-14T03:19:38.780Z,15.67
2022-12-14T03:22:11.050Z,16.70
2022-12-14T03:24:42.697Z,14.73
2022-12-14T03:27:15.887Z,15.57
2022-12-14T03:29:49.515Z,15.23
2022-12-14T03:32:23.456Z,15.03
2022-12-14T03:34:55.828Z,15.20
2022-12-14T03:37:27.790Z,16.40
2022-12-14T03:39:55.725Z,15.40
2022-12-14T03:42:27.323Z,15.23
2022-12-14T03:45:04.509Z,15.87
2022-12-14T03:47:53.370Z,15.60
2022-12-14T03:50:25.973Z,16.30
2022-12-14T03:52:59.409Z,14.33
2022-12-14T03:55:35.133Z,15.73
2022-12-14T03:58:27.025Z,15.23
2022-12-14T04:01:03.783Z,15.67
2022-12-14T04:03:46.358Z,16.50
2022-12-14T04:06:23.377Z,15.00
2022-12-14T04:08:59.205Z,14.93
2022-12-14T04:11:49.583Z,16.47
2022-12-14T04:14:39.034Z,15.73
2022-12-14T04:17:30.794Z,14.37
2022-12-14T04:20:04.650Z,15.53
2022-12-14T04:22:39.161Z,15.80
2022-12-14T04:25:30.399Z,15.67
2022-12-14T04:28:04.339Z,14.63
2022-12-14T04:30:35.431Z,15.53
2022-12-14T04:33:22.394Z,14.47
2022-12-14T04:35:53.085Z,16.13
2022-12-14T04:38:27.610Z,15.73
2022-12-14T04:40:58.963Z,16.60
2022-12-14T04:43:30.977Z,16.80
2022-12-14T04:46:05.055Z,14.50
2022-12-14T04:48:40.526Z,15.00
2022-12-14T04:51:14.543Z,15.83
2022-12-14T04:53:45.788Z,16.23
2022-12-14T04:56:20.898Z,14.33
2022-12-14T04:58:49.368Z,15.57
2022-12-14T05:01:32.816Z,15.87
2022-12-14T05:04:10.940Z,15.73
2022-12-14T05:06:50.571Z,14.73
2022-12-14T05:09:23.180Z,15.00
2022-12-14T05:11:58.887Z,15.80
2022-12-14T05:14:36.260Z,16.50
2022-12-14T05:17:08.929Z,17.10
2022-12-14T05:19:37.665Z,16.87
2022-12-14T05:22:08.913Z,18.03
2022-12-14T05:24:36.956Z,16.73
2022-12-14T05:27:05.033Z,15.97
2022-12-14T05:29:33.162Z,17.90
2022-12-14T05:32:01.857Z,16.40
2022-12-14T05:34:30.858Z,17.37
2022-12-14T05:36:59.182Z,16.97
2022-12-14T05:39:28.389Z,18.50
2022-12-14T05:41:56.290Z,16.73
2022-12-14T05:44:24.241Z,17.23
2022-12-14T05:46:52.248Z,17.33
2022-12-14T05:49:20.139Z,18.60
2022-12-14T05:51:49.125Z,17.63
2022-12-14T05:54:17.044Z,17.90
2022-12-14T05:56:46.214Z,19.33
2022-12-14T05:59:15.798Z,18.73
2022-12-14T06:01:44.530Z,17.47
2022-12-14T06:04:18.027Z,20.37
2022-12-14T06:06:46.150Z,19.10
2022-12-14T06:09:16.231Z,18.00
2022-12-14T06:11:44.964Z,18.77
2022-12-14T06:14:14.960Z,18.20
2022-12-14T06:16:44.886Z,19.40
2022-12-14T06:19:14.599Z,30.23
2022-12-14T06:21:44.836Z,20.43
2022-12-14T06:24:13.729Z,22.40
2022-12-14T06:26:42.099Z,22.90
2022-12-14T06:29:16.618Z,20.63
2022-12-14T06:31:44.511Z,20.13
2022-12-14T06:34:12.596Z,19.23
2022-12-14T06:36:42.343Z,18.00
2022-12-14T06:39:13.102Z,18.70
2022-12-14T06:41:41.618Z,20.07
2022-12-14T06:44:13.052Z,20.57
2022-12-14T06:46:43.068Z,21.90
2022-12-14T06:49:14.581Z,19.30
2022-12-14T06:51:43.370Z,19.37
2022-12-14T06:54:13.458Z,19.23
2022-12-14T06:56:42.380Z,19.03
2022-12-14T06:59:10.776Z,20.17
2022-12-14T07:01:39.289Z,19.30
2022-12-14T07:04:09.388Z,18.87
2022-12-14T07:06:39.166Z,19.67
2022-12-14T07:09:08.688Z,20.13
2022-12-14T07:11:36.512Z,19.17
2022-12-14T07:14:06.214Z,18.93
2022-12-14T07:16:35.211Z,18.20
2022-12-14T07:19:03.839Z,21.00
2022-12-14T07:21:33.442Z,19.07
2022-12-14T07:24:02.439Z,20.63
2022-12-14T07:26:30.680Z,20.80
2022-12-14T07:29:00.504Z,22.53
2022-12-14T07:31:29.856Z,23.60
2022-12-14T07:33:59.450Z,20.00
2022-12-14T07:36:29.214Z,20.73
2022-12-14T07:38:58.553Z,22.10
2022-12-14T07:41:30.743Z,22.03
2022-12-14T07:44:00.757Z,23.83
2022-12-14T07:46:30.329Z,23.37
2022-12-14T07:48:59.818Z,23.83
2022-12-14T07:51:30.079Z,21.93
2022-12-14T07:54:00.127Z,22.17
2022-12-14T07:56:30.770Z,22.17
2022-12-14T07:59:00.480Z,21.03
2022-12-14T08:01:30.452Z,21.37
2022-12-14T08:04:00.437Z,24.47
2022-12-14T08:06:29.762Z,23.20
2022-12-14T08:09:00.327Z,22.30
2022-12-14T08:11:28.720Z,22.93
2022-12-14T08:13:57.805Z,20.07
2022-12-14T08:16:26.666Z,22.73
2022-12-14T08:18:55.956Z,20.97
2022-12-14T08:21:24.814Z,21.47
2022-12-14T08:23:55.283Z,23.43
2022-12-14T08:26:31.624Z,23.13
2022-12-14T08:29:03.011Z,23.00
2022-12-14T08:31:31.153Z,24.73
2022-12-14T08:34:00.274Z,24.70
2022-12-14T08:36:30.738Z,23.87
2022-12-14T08:38:59.882Z,24.57
2022-12-14T08:41:30.063Z,22.37
2022-12-14T08:43:59.506Z,22.57
2022-12-14T08:46:29.549Z,21.60
2022-12-14T08:48:57.906Z,22.27
2022-12-14T08:51:27.272Z,24.03
2022-12-14T08:53:56.166Z,23.23
2022-12-14T08:56:26.287Z,25.83
2022-12-14T08:58:55.836Z,23.40
2022-12-14T09:01:32.227Z,24.30
2022-12-14T09:04:05.193Z,24.17
2022-12-14T09:06:35.190Z,24.37
2022-12-14T09:09:03.080Z,23.87
2022-12-14T09:11:31.034Z,23.50
2022-12-14T09:14:00.373Z,28.17
2022-12-14T09:16:28.440Z,24.13
2022-12-14T09:18:56.620Z,27.03
2022-12-14T09:21:25.067Z,25.40
2022-12-14T09:23:58.927Z,25.27
2022-12-14T09:26:27.474Z,23.77
2022-12-14T09:28:57.521Z,24.90
2022-12-14T09:31:28.660Z,26.03
2022-12-14T09:33:56.763Z,24.33
2022-12-14T09:36:27.495Z,24.07
2022-12-14T09:38:57.807Z,25.27
2022-12-14T09:41:45.696Z,26.77
2022-12-14T09:44:26.876Z,25.43
2022-12-14T09:47:03.665Z,23.17
2022-12-14T09:49:34.767Z,25.27
2022-12-14T09:52:05.590Z,23.77
2022-12-14T09:54:36.305Z,21.33
2022-12-14T09:57:11.691Z,24.57
2022-12-14T09:59:40.091Z,22.93
2022-12-14T10:02:37.814Z,24.13
2022-12-14T10:05:39.691Z,23.40
2022-12-14T10:08:16.944Z,23.50
2022-12-14T10:10:56.731Z,24.27
2022-12-14T10:13:37.381Z,21.93
2022-12-14T10:16:16.256Z,22.47
2022-12-14T10:19:00.179Z,23.70
2022-12-14T10:21:42.474Z,22.33
2022-12-14T10:24:16.807Z,23.53
2022-12-14T10:26:49.670Z,23.97
2022-12-14T10:29:25.714Z,23.77
2022-12-14T10:32:01.800Z,22.87
2022-12-14T10:34:33.016Z,23.87
2022-12-14T10:37:09.629Z,25.67
2022-12-14T10:39:49.749Z,24.13
2022-12-14T10:42:26.459Z,23.50
2022-12-14T10:45:31.645Z,22.67
2022-12-14T10:47:54.857Z,22.83
2022-12-14T10:50:37.090Z,24.87
2022-12-14T10:53:08.305Z,23.80
2022-12-14T10:55:40.977Z,24.27
2022-12-14T10:58:11.829Z,24.30
2022-12-14T11:00:39.937Z,23.60
2022-12-14T11:03:15.091Z,24.00
2022-12-14T11:05:53.222Z,24.97
2022-12-14T11:08:39.909Z,24.97
2022-12-14T11:11:16.985Z,25.43
2022-12-14T11:13:54.568Z,25.07
2022-12-14T11:16:35.533Z,24.77
2022-12-14T11:19:06.252Z,26.77
2022-12-14T11:21:37.283Z,24.93
2022-12-14T11:24:06.447Z,24.50
2022-12-14T11:26:37.658Z,26.30
2022-12-14T11:29:08.065Z,26.27
2022-12-14T11:31:38.946Z,24.60
2022-12-14T11:34:21.969Z,24.87
2022-12-14T11:36:51.671Z,24.73
2022-12-14T11:39:24.773Z,27.33
2022-12-14T11:42:02.024Z,25.80
2022-12-14T11:44:32.027Z,26.77
2022-12-14T11:47:03.808Z,25.77
2022-12-14T11:49:36.542Z,26.93
2022-12-14T11:52:12.405Z,25.90
2022-12-14T11:54:41.683Z,24.77
2022-12-14T11:57:20.568Z,26.07
2022-12-14T11:59:52.320Z,27.53
2022-12-14T12:02:26.987Z,26.77
2022-12-14T12:04:59.285Z,27.97
2022-12-14T12:07:32.212Z,30.97
2022-12-14T12:10:07.065Z,38.37
2022-12-14T12:12:35.100Z,48.10
2022-12-14T12:15:03.782Z,42.87
2022-12-14T12:17:44.029Z,46.90
2022-12-14T12:20:33.905Z,41.07
2022-12-14T12:23:07.991Z,31.73
2022-12-14T12:25:37.796Z,31.03
2022-12-14T12:28:15.626Z,31.37
2022-12-14T12:30:48.102Z,27.27
2022-12-14T12:33:25.739Z,25.27
2022-12-14T12:35:56.379Z,22.93
2022-12-14T12:38:40.951Z,26.67
2022-12-14T12:41:22.538Z,28.23
2022-12-14T12:43:54.688Z,26.33
2022-12-14T12:46:28.373Z,26.60
2022-12-14T12:49:01.816Z,26.60
2022-12-14T12:51:36.046Z,26.37
2022-12-14T12:54:08.360Z,27.00
2022-12-14T12:56:43.006Z,26.80
2022-12-14T12:59:17.863Z,26.37
2022-12-14T13:01:51.199Z,25.00
2022-12-14T13:04:28.106Z,26.90
2022-12-14T13:06:59.472Z,25.47
2022-12-14T13:09:38.437Z,26.57
2022-12-14T13:12:13.279Z,27.30
2022-12-14T13:14:49.553Z,26.43
2022-12-14T13:17:28.190Z,26.07
2022-12-14T13:19:59.681Z,24.50
2022-12-14T13:22:30.384Z,24.77
2022-12-14T13:25:04.371Z,25.07
2022-12-14T13:28:07.050Z,26.13
2022-12-14T13:30:47.292Z,25.13
2022-12-14T13:33:40.007Z,29.23
2022-12-14T13:36:41.275Z,25.27
2022-12-14T13:39:29.927Z,26.13
2022-12-14T13:42:05.901Z,26.00
2022-12-14T13:44:47.265Z,25.93
2022-12-14T13:47:18.622Z,24.37
2022-12-14T13:50:26.902Z,25.87
2022-12-14T13:52:45.677Z,25.37
2022-12-14T13:55:28.718Z,26.63
2022-12-14T13:58:09.981Z,26.23
2022-12-14T14:00:57.002Z,25.53
2022-12-14T14:03:51.949Z,26.27
2022-12-14T14:06:40.714Z,26.20
2022-12-14T14:09:49.173Z,25.83
2022-12-14T14:12:50.234Z,28.57
2022-12-14T14:15:32.985Z,28.57
2022-12-14T14:18:21.407Z,26.57
2022-12-14T14:20:56.984Z,25.10
2022-12-14T14:23:35.586Z,26.13
2022-12-14T14:26:37.155Z,25.63
2022-12-14T14:29:21.969Z,24.57
2022-12-14T14:31:54.573Z,25.37
2022-12-14T14:34:49.558Z,25.63
2022-12-14T14:37:28.463Z,25.13
2022-12-14T14:40:16.691Z,25.23
2022-12-14T14:42:53.001Z,25.40
2022-12-14T14:45:30.895Z,24.33
2022-12-14T14:48:02.916Z,25.47
2022-12-14T14:50:33.859Z,26.60
2022-12-14T14:53:30.872Z,23.13
2022-12-14T14:56:11.555Z,23.60
2022-12-14T14:58:41.181Z,24.50
2022-12-14T15:01:25.354Z,23.07
2022-12-14T15:03:58.203Z,22.57
2022-12-14T15:06:29.392Z,22.93
2022-12-14T15:09:08.179Z,21.87
2022-12-14T15:11:45.379Z,20.73
2022-12-14T15:14:35.508Z,24.17
2022-12-14T15:17:14.333Z,21.97
2022-12-14T15:19:50.066Z,26.97
2022-12-14T15:22:20.927Z,24.37
2022-12-14T15:24:52.910Z,20.63
2022-12-14T15:27:26.179Z,25.70
2022-12-14T15:29:56.771Z,23.40
2022-12-14T15:32:26.243Z,20.17
2022-12-14T15:34:57.978Z,20.97
2022-12-14T15:37:30.129Z,22.20
2022-12-14T15:40:03.783Z,22.30
2022-12-14T15:42:31.646Z,20.47
2022-12-14T15:45:08.372Z,19.80
2022-12-14T15:47:36.793Z,18.70
2022-12-14T15:50:25.572Z,20.00
2022-12-14T15:52:56.537Z,20.87
2022-12-14T15:55:31.082Z,18.10
2022-12-14T15:58:01.084Z,16.53
2022-12-14T16:00:29.059Z,19.03
2022-12-14T16:02:57.252Z,16.67
2022-12-14T16:05:36.797Z,18.43
2022-12-14T16:08:04.964Z,18.27
2022-12-14T16:10:33.911Z,18.60
2022-12-14T16:13:07.399Z,17.03
2022-12-14T16:15:35.896Z,16.53
2022-12-14T16:18:04.139Z,15.33
2022-12-14T16:20:37.020Z,16.83
2022-12-14T16:23:08.137Z,16.03
2022-12-14T16:25:38.473Z,15.93
2022-12-14T16:28:27.383Z,17.40
2022-12-14T16:30:59.356Z,17.03
2022-12-14T16:33:29.485Z,19.47
2022-12-14T16:36:08.297Z,18.03
2022-12-14T16:38:41.523Z,18.67
2022-12-14T16:41:09.827Z,17.27
2022-12-14T16:43:39.812Z,16.60
2022-12-14T16:46:14.495Z,16.67
2022-12-14T16:48:45.885Z,19.17
2022-12-14T16:54:31.451Z,18.33
2022-12-14T16:57:05.414Z,19.40
2022-12-14T16:59:43.115Z,17.30
2022-12-14T17:02:36.676Z,20.67
2022-12-14T17:05:12.923Z,18.33
2022-12-14T17:07:42.343Z,18.30
2022-12-14T17:10:15.886Z,16.03
2022-12-14T17:12:45.234Z,16.13
2022-12-14T17:15:14.299Z,15.90
2022-12-14T17:17:42.930Z,15.90
2022-12-14T17:20:16.877Z,15.63
2022-12-14T17:22:49.497Z,15.70
2022-12-14T17:25:18.082Z,16.37
2022-12-14T17:27:46.769Z,17.93
2022-12-14T17:30:19.742Z,16.60
2022-12-14T17:32:48.375Z,17.63
2022-12-14T17:35:18.020Z,18.63
2022-12-14T17:37:47.537Z,17.03
2022-12-14T17:40:17.556Z,16.90
2022-12-14T17:42:50.594Z,18.97
2022-12-14T17:45:21.553Z,15.20
2022-12-14T17:47:49.937Z,15.20
2022-12-14T17:50:19.115Z,21.40
2022-12-14T17:52:50.197Z,17.70
2022-12-14T17:55:20.055Z,19.80
2022-12-14T17:57:48.238Z,15.67
2022-12-14T18:00:35.867Z,16.37
2022-12-14T18:03:05.267Z,14.77
2022-12-14T18:05:33.878Z,14.93
2022-12-14T18:08:03.099Z,15.40
2022-12-14T18:10:32.799Z,14.90
2022-12-14T18:13:01.674Z,16.33
2022-12-14T18:15:32.102Z,16.20
2022-12-14T18:18:00.036Z,15.10
2022-12-14T18:20:27.913Z,16.17
2022-12-14T18:22:55.863Z,15.67
2022-12-14T18:25:31.673Z,14.80
2022-12-14T18:28:00.005Z,15.97
2022-12-14T18:30:32.094Z,15.17
2022-12-14T18:33:05.021Z,17.03
2022-12-14T18:35:34.930Z,17.57
2022-12-14T18:38:02.989Z,16.73
2022-12-14T18:40:32.340Z,19.90
2022-12-14T18:43:01.254Z,20.07
2022-12-14T18:45:31.694Z,19.57
2022-12-14T18:48:00.686Z,20.50
2022-12-14T18:50:29.917Z,25.40
2022-12-14T18:52:58.465Z,19.27
2022-12-14T18:55:28.562Z,15.57
2022-12-14T18:58:00.617Z,15.93
2022-12-14T19:00:31.402Z,16.27
2022-12-14T19:03:00.795Z,17.53
2022-12-14T19:05:29.626Z,17.63
2022-12-14T19:07:58.728Z,17.53
2022-12-14T19:10:29.086Z,17.53
2022-12-14T19:12:59.150Z,17.83
2022-12-14T19:15:29.070Z,18.13
2022-12-14T19:17:57.350Z,18.00
2022-12-14T19:20:26.433Z,20.60
2022-12-14T19:22:54.711Z,16.73
2022-12-14T19:25:23.587Z,18.17
2022-12-14T19:30:43.985Z,18.03
2022-12-14T19:33:11.982Z,17.80
2022-12-14T19:35:41.166Z,16.77
2022-12-14T19:38:14.456Z,20.17
2022-12-14T19:40:43.107Z,19.07
2022-12-14T19:43:10.965Z,18.20
2022-12-14T19:45:40.925Z,19.17
2022-12-14T19:48:12.927Z,17.70
2022-12-14T19:50:41.322Z,18.67
2022-12-14T19:53:09.193Z,18.67
2022-12-14T19:55:37.180Z,20.43
2022-12-14T19:58:05.053Z,20.47
2022-12-14T20:00:33.047Z,21.37
2022-12-14T20:03:02.521Z,20.63
2022-12-14T20:05:30.534Z,20.53
2022-12-14T20:07:58.375Z,18.37
2022-12-14T20:10:26.309Z,17.77
2022-12-14T20:12:54.170Z,17.50
2022-12-14T20:15:22.034Z,17.47
2022-12-14T20:17:50.066Z,19.03
2022-12-14T20:20:19.330Z,23.80
2022-12-14T20:22:47.206Z,18.20
2022-12-14T20:25:15.213Z,19.07
2022-12-14T20:27:43.047Z,19.13
2022-12-14T20:30:12.090Z,19.03
2022-12-14T20:32:41.145Z,18.13
2022-12-14T20:35:10.863Z,18.73
2022-12-14T20:37:40.063Z,19.30
2022-12-14T20:40:09.530Z,17.83
2022-12-14T20:42:37.457Z,18.93
2022-12-14T20:45:09.943Z,18.07
2022-12-14T20:47:37.968Z,21.00
2022-12-14T20:50:06.454Z,19.90
2022-12-14T20:52:34.488Z,18.90
2022-12-14T20:55:03.774Z,17.80
2022-12-14T20:57:33.117Z,18.27
2022-12-14T21:00:01.247Z,18.70
2022-12-14T21:02:29.228Z,20.73
2022-12-14T21:04:57.344Z,19.40
2022-12-14T21:07:26.393Z,20.97
2022-12-14T21:09:54.525Z,20.10
2022-12-14T21:12:22.818Z,19.00
2022-12-14T21:14:53.774Z,18.77
2022-12-14T21:17:23.143Z,18.70
2022-12-14T21:19:51.774Z,20.33
2022-12-14T21:22:21.834Z,20.87
2022-12-14T21:25:06.648Z,19.53
2022-12-14T21:27:38.951Z,18.43
2022-12-14T21:30:08.793Z,18.20
2022-12-14T21:32:37.407Z,17.60
2022-12-14T21:35:06.495Z,17.33
2022-12-14T21:37:34.665Z,18.93
2022-12-14T21:40:03.921Z,18.50
2022-12-14T21:42:31.023Z,19.27
2022-12-14T21:45:00.319Z,19.00
2022-12-14T21:47:30.112Z,19.77
2022-12-14T21:49:58.579Z,19.93
2022-12-14T21:52:28.596Z,20.67
2022-12-14T21:54:58.560Z,20.17
2022-12-14T21:57:52.678Z,20.90
2022-12-14T22:00:23.001Z,21.63
2022-12-14T22:02:51.016Z,19.73
2022-12-14T22:05:19.171Z,21.00
2022-12-14T22:07:47.103Z,19.73
2022-12-14T22:10:17.649Z,19.23
2022-12-14T22:12:47.839Z,19.83
2022-12-14T22:15:15.739Z,20.43
2022-12-14T22:17:44.994Z,19.93
2022-12-14T22:20:13.925Z,20.30
2022-12-14T22:22:41.729Z,21.00
2022-12-14T22:25:10.017Z,20.97
2022-12-14T22:27:37.957Z,20.13
2022-12-14T22:30:06.772Z,21.53
2022-12-14T22:32:34.595Z,20.67
2022-12-14T22:35:04.424Z,21.93
2022-12-14T22:37:32.302Z,21.20
2022-12-14T22:40:00.353Z,21.07
2022-12-14T22:42:28.206Z,21.00
2022-12-14T22:44:56.467Z,19.67
2022-12-14T22:47:24.329Z,20.13
2022-12-14T22:49:52.142Z,18.87
2022-12-14T22:52:24.929Z,18.90
2022-12-14T22:54:54.144Z,18.80
2022-12-14T22:57:23.173Z,19.17
2022-12-14T22:59:56.500Z,20.40
2022-12-14T23:02:24.648Z,20.00
2022-12-14T23:04:52.778Z,18.90
2022-12-14T23:07:22.087Z,19.87
2022-12-14T23:10:07.187Z,18.97
2022-12-14T23:12:52.567Z,20.17
2022-12-14T23:15:38.103Z,18.67
2022-12-14T23:18:26.021Z,20.60
2022-12-14T23:21:12.374Z,19.63
2022-12-14T23:24:00.154Z,18.90
2022-12-14T23:26:46.091Z,19.10
2022-12-14T23:29:32.500Z,20.07
2022-12-14T23:32:18.350Z,19.27
2022-12-14T23:35:03.419Z,17.90
2022-12-14T23:37:48.804Z,17.80
2022-12-14T23:40:35.770Z,18.53
2022-12-14T23:43:26.443Z,18.67
2022-12-14T23:46:11.859Z,19.03
2022-12-14T23:48:57.163Z,18.17
2022-12-14T23:51:42.318Z,18.87
2022-12-14T23:54:27.603Z,19.37
2022-12-14T23:57:14.726Z,20.73
